sensor_id;sensor_type;location;lat;lon;timestamp;temperature;humidity
25482;DHT22;13395;50.752;4.268;2024-01-10T00:01:33;-2.90;99.90
25482;DHT22;13395;50.752;4.268;2024-01-10T00:03:59;-3.00;99.90
25482;DHT22;13395;50.752;4.268;2024-01-10T00:06:24;-3.00;99.90
25482;DHT22;13395;50.752;4.268;2024-01-10T00:08:50;-3.00;99.90
25482;DHT22;13395;50.752;4.268;2024-01-10T00:11:16;-2.90;99.90
25482;DHT22;13395;50.752;4.268;2024-01-10T00:13:42;-3.00;99.90
25482;DHT22;13395;50.752;4.268;2024-01-10T00:16:07;-3.10;99.90
25482;DHT22;13395;50.752;4.268;2024-01-10T00:18:33;-3.20;99.90
25482;DHT22;13395;50.752;4.268;2024-01-10T00:20:59;-3.30;99.90
25482;DHT22;13395;50.752;4.268;2024-01-10T00:23:25;-3.20;99.90
25482;DHT22;13395;50.752;4.268;2024-01-10T00:25:50;-3.20;99.90
25482;DHT22;13395;50.752;4.268;2024-01-10T00:28:16;-3.10;99.90
25482;DHT22;13395;50.752;4.268;2024-01-10T00:30:46;-3.20;99.90
25482;DHT22;13395;50.752;4.268;2024-01-10T00:33:15;-3.20;99.90
25482;DHT22;13395;50.752;4.268;2024-01-10T00:35:41;-3.30;99.90
25482;DHT22;13395;50.752;4.268;2024-01-10T00:38:06;-3.30;99.90
25482;DHT22;13395;50.752;4.268;2024-01-10T00:40:32;-3.20;99.90
25482;DHT22;13395;50.752;4.268;2024-01-10T00:42:57;-3.10;99.90
25482;DHT22;13395;50.752;4.268;2024-01-10T00:45:23;-3.20;99.90
25482;DHT22;13395;50.752;4.268;2024-01-10T00:47:49;-3.10;99.90
25482;DHT22;13395;50.752;4.268;2024-01-10T00:50:15;-3.10;99.90
25482;DHT22;13395;50.752;4.268;2024-01-10T00:52:42;-3.20;99.90
25482;DHT22;13395;50.752;4.268;2024-01-10T00:55:07;-3.20;99.90
25482;DHT22;13395;50.752;4.268;2024-01-10T00:57:33;-3.20;99.90
25482;DHT22;13395;50.752;4.268;2024-01-10T00:59:59;-3.20;99.90
25482;DHT22;13395;50.752;4.268;2024-01-10T01:02:24;-3.30;99.90
25482;DHT22;13395;50.752;4.268;2024-01-10T01:04:50;-3.30;99.90
25482;DHT22;13395;50.752;4.268;2024-01-10T01:07:16;-3.30;99.90
25482;DHT22;13395;50.752;4.268;2024-01-10T01:09:41;-3.30;99.90
25482;DHT22;13395;50.752;4.268;2024-01-10T01:12:07;-3.30;99.90
25482;DHT22;13395;50.752;4.268;2024-01-10T01:14:32;-3.40;99.90
25482;DHT22;13395;50.752;4.268;2024-01-10T01:16:58;-3.40;99.90
25482;DHT22;13395;50.752;4.268;2024-01-10T01:19:24;-3.40;99.90
25482;DHT22;13395;50.752;4.268;2024-01-10T01:21:50;-3.40;99.90
25482;DHT22;13395;50.752;4.268;2024-01-10T01:24:15;-3.40;99.90
25482;DHT22;13395;50.752;4.268;2024-01-10T01:26:41;-3.40;99.90
25482;DHT22;13395;50.752;4.268;2024-01-10T01:29:06;-3.40;99.90
25482;DHT22;13395;50.752;4.268;2024-01-10T01:31:34;-3.50;99.90
25482;DHT22;13395;50.752;4.268;2024-01-10T01:33:59;-3.50;99.90
25482;DHT22;13395;50.752;4.268;2024-01-10T01:36:25;-3.60;99.90
25482;DHT22;13395;50.752;4.268;2024-01-10T01:38:50;-3.60;99.90
25482;DHT22;13395;50.752;4.268;2024-01-10T01:41:16;-3.60;99.90
25482;DHT22;13395;50.752;4.268;2024-01-10T01:43:43;-3.60;99.90
25482;DHT22;13395;50.752;4.268;2024-01-10T01:46:09;-3.60;99.90
25482;DHT22;13395;50.752;4.268;2024-01-10T01:48:35;-3.60;99.90
25482;DHT22;13395;50.752;4.268;2024-01-10T01:51:04;-3.60;99.90
25482;DHT22;13395;50.752;4.268;2024-01-10T01:53:31;-3.60;99.90
25482;DHT22;13395;50.752;4.268;2024-01-10T01:55:57;-3.60;99.90
25482;DHT22;13395;50.752;4.268;2024-01-10T01:58:25;-3.70;99.90
25482;DHT22;13395;50.752;4.268;2024-01-10T02:00:52;-3.60;99.90
25482;DHT22;13395;50.752;4.268;2024-01-10T02:03:18;-3.70;99.90
25482;DHT22;13395;50.752;4.268;2024-01-10T02:05:44;-3.70;99.90
25482;DHT22;13395;50.752;4.268;2024-01-10T02:08:09;-3.70;99.90
25482;DHT22;13395;50.752;4.268;2024-01-10T02:10:35;-3.50;99.90
25482;DHT22;13395;50.752;4.268;2024-01-10T02:13:01;-3.80;99.90
25482;DHT22;13395;50.752;4.268;2024-01-10T02:15:27;-3.80;99.90
25482;DHT22;13395;50.752;4.268;2024-01-10T02:17:53;-3.80;99.90
25482;DHT22;13395;50.752;4.268;2024-01-10T02:20:18;-3.80;99.90
25482;DHT22;13395;50.752;4.268;2024-01-10T02:22:46;-3.80;99.90
25482;DHT22;13395;50.752;4.268;2024-01-10T02:25:13;-3.80;99.90
25482;DHT22;13395;50.752;4.268;2024-01-10T02:27:40;-3.80;99.90
25482;DHT22;13395;50.752;4.268;2024-01-10T02:30:06;-3.70;99.90
25482;DHT22;13395;50.752;4.268;2024-01-10T02:32:33;-3.80;99.90
25482;DHT22;13395;50.752;4.268;2024-01-10T02:34:59;-3.70;99.90
25482;DHT22;13395;50.752;4.268;2024-01-10T02:37:24;-3.70;99.90
25482;DHT22;13395;50.752;4.268;2024-01-10T02:39:50;-3.70;99.90
25482;DHT22;13395;50.752;4.268;2024-01-10T02:42:16;-3.80;99.90
25482;DHT22;13395;50.752;4.268;2024-01-10T02:44:42;-3.80;99.90
25482;DHT22;13395;50.752;4.268;2024-01-10T02:47:08;-3.60;99.90
25482;DHT22;13395;50.752;4.268;2024-01-10T02:49:34;-3.90;99.90
25482;DHT22;13395;50.752;4.268;2024-01-10T02:52:00;-3.90;99.90
25482;DHT22;13395;50.752;4.268;2024-01-10T02:54:25;-3.90;99.90
25482;DHT22;13395;50.752;4.268;2024-01-10T02:56:51;-3.90;99.90
25482;DHT22;13395;50.752;4.268;2024-01-10T02:59:17;-3.80;99.90
25482;DHT22;13395;50.752;4.268;2024-01-10T03:01:42;-3.80;99.90
25482;DHT22;13395;50.752;4.268;2024-01-10T03:04:09;-3.80;99.90
25482;DHT22;13395;50.752;4.268;2024-01-10T03:06:34;-3.90;99.90
25482;DHT22;13395;50.752;4.268;2024-01-10T03:09:00;-3.90;99.90
25482;DHT22;13395;50.752;4.268;2024-01-10T03:11:25;-3.90;99.90
25482;DHT22;13395;50.752;4.268;2024-01-10T03:14:00;-3.90;99.90
25482;DHT22;13395;50.752;4.268;2024-01-10T03:16:26;-3.90;99.90
25482;DHT22;13395;50.752;4.268;2024-01-10T03:18:51;-3.90;99.90
25482;DHT22;13395;50.752;4.268;2024-01-10T03:21:17;-3.90;99.90
25482;DHT22;13395;50.752;4.268;2024-01-10T03:23:59;-3.90;99.90
25482;DHT22;13395;50.752;4.268;2024-01-10T03:26:25;-3.90;99.90
25482;DHT22;13395;50.752;4.268;2024-01-10T03:28:51;-3.90;99.90
25482;DHT22;13395;50.752;4.268;2024-01-10T03:31:17;-3.90;99.90
25482;DHT22;13395;50.752;4.268;2024-01-10T03:33:43;-3.80;99.90
25482;DHT22;13395;50.752;4.268;2024-01-10T03:36:12;-3.90;99.90
25482;DHT22;13395;50.752;4.268;2024-01-10T03:38:39;-3.90;99.90
25482;DHT22;13395;50.752;4.268;2024-01-10T03:41:04;-3.90;99.90
25482;DHT22;13395;50.752;4.268;2024-01-10T03:43:30;-3.90;99.90
25482;DHT22;13395;50.752;4.268;2024-01-10T03:45:59;-3.90;99.90
25482;DHT22;13395;50.752;4.268;2024-01-10T03:48:25;-3.90;99.90
25482;DHT22;13395;50.752;4.268;2024-01-10T03:50:50;-4.00;99.90
25482;DHT22;13395;50.752;4.268;2024-01-10T03:53:16;-4.00;99.90
25482;DHT22;13395;50.752;4.268;2024-01-10T03:55:42;-3.90;99.90
25482;DHT22;13395;50.752;4.268;2024-01-10T03:58:07;-3.90;99.90
25482;DHT22;13395;50.752;4.268;2024-01-10T04:00:33;-3.90;99.90
25482;DHT22;13395;50.752;4.268;2024-01-10T04:02:59;-3.70;99.90
25482;DHT22;13395;50.752;4.268;2024-01-10T04:05:24;-4.00;99.90
25482;DHT22;13395;50.752;4.268;2024-01-10T04:07:51;-4.00;99.90
25482;DHT22;13395;50.752;4.268;2024-01-10T04:10:18;-4.00;99.90
25482;DHT22;13395;50.752;4.268;2024-01-10T04:12:44;-4.00;99.90
25482;DHT22;13395;50.752;4.268;2024-01-10T04:15:10;-3.90;99.90
25482;DHT22;13395;50.752;4.268;2024-01-10T04:17:36;-4.00;99.90
25482;DHT22;13395;50.752;4.268;2024-01-10T04:20:02;-4.00;99.90
25482;DHT22;13395;50.752;4.268;2024-01-10T04:22:28;-4.10;99.90
25482;DHT22;13395;50.752;4.268;2024-01-10T04:24:56;-4.10;99.90
25482;DHT22;13395;50.752;4.268;2024-01-10T04:27:22;-4.20;99.90
25482;DHT22;13395;50.752;4.268;2024-01-10T04:29:48;-4.10;99.90
25482;DHT22;13395;50.752;4.268;2024-01-10T04:32:13;-4.10;99.90
25482;DHT22;13395;50.752;4.268;2024-01-10T04:34:39;-4.20;99.90
25482;DHT22;13395;50.752;4.268;2024-01-10T04:37:05;-4.10;99.90
25482;DHT22;13395;50.752;4.268;2024-01-10T04:39:33;-4.10;99.90
25482;DHT22;13395;50.752;4.268;2024-01-10T04:41:59;-4.30;99.90
25482;DHT22;13395;50.752;4.268;2024-01-10T04:44:24;-4.30;99.90
25482;DHT22;13395;50.752;4.268;2024-01-10T04:46:50;-4.40;99.90
25482;DHT22;13395;50.752;4.268;2024-01-10T04:49:15;-4.40;99.90
25482;DHT22;13395;50.752;4.268;2024-01-10T04:51:41;-4.40;99.90
25482;DHT22;13395;50.752;4.268;2024-01-10T04:54:07;-4.20;99.90
25482;DHT22;13395;50.752;4.268;2024-01-10T04:56:32;-4.30;99.90
25482;DHT22;13395;50.752;4.268;2024-01-10T04:58:58;-4.20;99.90
25482;DHT22;13395;50.752;4.268;2024-01-10T05:01:23;-4.20;99.90
25482;DHT22;13395;50.752;4.268;2024-01-10T05:03:49;-4.10;99.90
25482;DHT22;13395;50.752;4.268;2024-01-10T05:06:15;-4.10;99.90
25482;DHT22;13395;50.752;4.268;2024-01-10T05:08:40;-4.10;99.90
25482;DHT22;13395;50.752;4.268;2024-01-10T05:11:06;-4.10;99.90
25482;DHT22;13395;50.752;4.268;2024-01-10T05:13:31;-4.10;99.90
25482;DHT22;13395;50.752;4.268;2024-01-10T05:15:57;-4.10;99.90
25482;DHT22;13395;50.752;4.268;2024-01-10T05:18:23;-4.20;99.90
25482;DHT22;13395;50.752;4.268;2024-01-10T05:20:49;-4.20;99.90
25482;DHT22;13395;50.752;4.268;2024-01-10T05:23:15;-4.20;99.90
25482;DHT22;13395;50.752;4.268;2024-01-10T05:25:41;-4.10;99.90
25482;DHT22;13395;50.752;4.268;2024-01-10T05:28:06;-4.10;99.90
25482;DHT22;13395;50.752;4.268;2024-01-10T05:30:32;-4.10;99.90
25482;DHT22;13395;50.752;4.268;2024-01-10T05:32:58;-4.20;99.90
25482;DHT22;13395;50.752;4.268;2024-01-10T05:35:24;-4.10;99.90
25482;DHT22;13395;50.752;4.268;2024-01-10T05:37:51;-4.10;99.90
25482;DHT22;13395;50.752;4.268;2024-01-10T05:40:18;-4.20;99.90
25482;DHT22;13395;50.752;4.268;2024-01-10T05:42:44;-4.10;99.90
25482;DHT22;13395;50.752;4.268;2024-01-10T05:45:10;-4.20;99.90
25482;DHT22;13395;50.752;4.268;2024-01-10T05:47:35;-4.10;99.90
25482;DHT22;13395;50.752;4.268;2024-01-10T05:50:01;-4.10;99.90
25482;DHT22;13395;50.752;4.268;2024-01-10T05:52:27;-4.20;99.90
25482;DHT22;13395;50.752;4.268;2024-01-10T05:54:53;-4.20;99.90
25482;DHT22;13395;50.752;4.268;2024-01-10T05:57:19;-4.20;99.90
25482;DHT22;13395;50.752;4.268;2024-01-10T05:59:46;-4.20;99.90
25482;DHT22;13395;50.752;4.268;2024-01-10T06:02:12;-4.20;99.90
25482;DHT22;13395;50.752;4.268;2024-01-10T06:04:41;-4.20;99.90
25482;DHT22;13395;50.752;4.268;2024-01-10T06:07:07;-4.20;99.90
25482;DHT22;13395;50.752;4.268;2024-01-10T06:09:32;-4.20;99.90
25482;DHT22;13395;50.752;4.268;2024-01-10T06:11:58;-4.20;99.90
25482;DHT22;13395;50.752;4.268;2024-01-10T06:14:24;-4.20;99.90
25482;DHT22;13395;50.752;4.268;2024-01-10T06:16:49;-4.20;99.90
25482;DHT22;13395;50.752;4.268;2024-01-10T06:19:15;-4.20;99.90
25482;DHT22;13395;50.752;4.268;2024-01-10T06:21:40;-4.20;99.90
25482;DHT22;13395;50.752;4.268;2024-01-10T06:24:06;-4.20;99.90
25482;DHT22;13395;50.752;4.268;2024-01-10T06:26:33;-4.20;99.90
25482;DHT22;13395;50.752;4.268;2024-01-10T06:28:59;-4.20;99.90
25482;DHT22;13395;50.752;4.268;2024-01-10T06:31:24;-4.30;99.90
25482;DHT22;13395;50.752;4.268;2024-01-10T06:33:50;-4.20;99.90
25482;DHT22;13395;50.752;4.268;2024-01-10T06:36:15;-4.20;99.90
25482;DHT22;13395;50.752;4.268;2024-01-10T06:38:41;-4.20;99.90
25482;DHT22;13395;50.752;4.268;2024-01-10T06:41:10;-4.20;99.90
25482;DHT22;13395;50.752;4.268;2024-01-10T06:43:39;-4.20;99.90
25482;DHT22;13395;50.752;4.268;2024-01-10T06:46:06;-4.30;99.90
25482;DHT22;13395;50.752;4.268;2024-01-10T06:48:32;-4.30;99.90
25482;DHT22;13395;50.752;4.268;2024-01-10T06:50:58;-4.20;99.90
25482;DHT22;13395;50.752;4.268;2024-01-10T06:53:24;-4.20;99.90
25482;DHT22;13395;50.752;4.268;2024-01-10T06:55:50;-4.20;99.90
25482;DHT22;13395;50.752;4.268;2024-01-10T06:58:16;-4.20;99.90
25482;DHT22;13395;50.752;4.268;2024-01-10T07:00:41;-4.20;99.90
25482;DHT22;13395;50.752;4.268;2024-01-10T07:03:07;-4.10;99.90
25482;DHT22;13395;50.752;4.268;2024-01-10T07:05:33;-4.10;99.90
25482;DHT22;13395;50.752;4.268;2024-01-10T07:07:59;-4.10;99.90
25482;DHT22;13395;50.752;4.268;2024-01-10T07:10:28;-4.10;99.90
25482;DHT22;13395;50.752;4.268;2024-01-10T07:12:55;-4.00;99.90
25482;DHT22;13395;50.752;4.268;2024-01-10T07:15:21;-4.00;99.90
25482;DHT22;13395;50.752;4.268;2024-01-10T07:17:47;-4.00;99.90
25482;DHT22;13395;50.752;4.268;2024-01-10T07:20:13;-3.80;99.90
25482;DHT22;13395;50.752;4.268;2024-01-10T07:22:39;-3.80;99.90
25482;DHT22;13395;50.752;4.268;2024-01-10T07:25:07;-3.80;99.90
25482;DHT22;13395;50.752;4.268;2024-01-10T07:27:34;-3.70;99.90
25482;DHT22;13395;50.752;4.268;2024-01-10T07:30:04;-3.70;99.90
25482;DHT22;13395;50.752;4.268;2024-01-10T07:32:30;-3.70;99.90
25482;DHT22;13395;50.752;4.268;2024-01-10T07:34:56;-3.70;99.90
25482;DHT22;13395;50.752;4.268;2024-01-10T07:37:23;-3.70;99.90
25482;DHT22;13395;50.752;4.268;2024-01-10T07:39:49;-3.70;99.90
25482;DHT22;13395;50.752;4.268;2024-01-10T07:42:15;-3.80;99.90
25482;DHT22;13395;50.752;4.268;2024-01-10T07:44:43;-3.80;99.90
25482;DHT22;13395;50.752;4.268;2024-01-10T07:47:09;-3.80;99.90
25482;DHT22;13395;50.752;4.268;2024-01-10T07:49:36;-3.80;99.90
25482;DHT22;13395;50.752;4.268;2024-01-10T07:52:03;-3.80;99.90
25482;DHT22;13395;50.752;4.268;2024-01-10T07:54:29;-3.80;99.90
25482;DHT22;13395;50.752;4.268;2024-01-10T07:56:58;-3.80;99.90
25482;DHT22;13395;50.752;4.268;2024-01-10T07:59:23;-3.70;99.90
25482;DHT22;13395;50.752;4.268;2024-01-10T08:01:56;-3.70;99.90
25482;DHT22;13395;50.752;4.268;2024-01-10T08:04:27;-3.70;99.90
25482;DHT22;13395;50.752;4.268;2024-01-10T08:06:53;-3.70;99.90
25482;DHT22;13395;50.752;4.268;2024-01-10T08:09:19;-3.60;99.90
25482;DHT22;13395;50.752;4.268;2024-01-10T08:11:45;-3.60;99.90
25482;DHT22;13395;50.752;4.268;2024-01-10T08:14:12;-3.60;99.90
25482;DHT22;13395;50.752;4.268;2024-01-10T08:16:38;-3.70;99.90
25482;DHT22;13395;50.752;4.268;2024-01-10T08:19:03;-3.60;99.90
25482;DHT22;13395;50.752;4.268;2024-01-10T08:21:29;-3.60;99.90
25482;DHT22;13395;50.752;4.268;2024-01-10T08:23:54;-3.50;99.90
25482;DHT22;13395;50.752;4.268;2024-01-10T08:26:20;-3.50;99.90
25482;DHT22;13395;50.752;4.268;2024-01-10T08:28:46;-3.50;99.90
25482;DHT22;13395;50.752;4.268;2024-01-10T08:31:11;-3.50;99.90
25482;DHT22;13395;50.752;4.268;2024-01-10T08:33:38;-3.50;99.90
25482;DHT22;13395;50.752;4.268;2024-01-10T08:36:04;-3.40;99.90
25482;DHT22;13395;50.752;4.268;2024-01-10T08:38:30;-3.30;99.90
25482;DHT22;13395;50.752;4.268;2024-01-10T08:40:56;-3.30;99.90
25482;DHT22;13395;50.752;4.268;2024-01-10T08:43:22;-3.40;99.90
25482;DHT22;13395;50.752;4.268;2024-01-10T08:45:48;-3.40;99.90
25482;DHT22;13395;50.752;4.268;2024-01-10T08:48:14;-3.40;99.90
25482;DHT22;13395;50.752;4.268;2024-01-10T08:50:39;-3.50;99.90
25482;DHT22;13395;50.752;4.268;2024-01-10T08:53:05;-3.40;99.90
25482;DHT22;13395;50.752;4.268;2024-01-10T08:55:31;-3.40;99.90
25482;DHT22;13395;50.752;4.268;2024-01-10T08:57:57;-3.40;99.90
25482;DHT22;13395;50.752;4.268;2024-01-10T09:00:23;-3.40;99.90
25482;DHT22;13395;50.752;4.268;2024-01-10T09:02:50;-3.50;99.90
25482;DHT22;13395;50.752;4.268;2024-01-10T09:05:16;-3.60;99.90
25482;DHT22;13395;50.752;4.268;2024-01-10T09:07:41;-3.50;99.90
25482;DHT22;13395;50.752;4.268;2024-01-10T09:10:08;-3.40;99.90
25482;DHT22;13395;50.752;4.268;2024-01-10T09:12:34;-3.40;99.90
25482;DHT22;13395;50.752;4.268;2024-01-10T09:15:00;-3.40;99.90
25482;DHT22;13395;50.752;4.268;2024-01-10T09:17:26;-3.50;99.90
25482;DHT22;13395;50.752;4.268;2024-01-10T09:19:53;-3.40;99.90
25482;DHT22;13395;50.752;4.268;2024-01-10T09:22:19;-3.40;99.90
25482;DHT22;13395;50.752;4.268;2024-01-10T09:24:45;-3.30;99.90
25482;DHT22;13395;50.752;4.268;2024-01-10T09:27:11;-3.10;99.90
25482;DHT22;13395;50.752;4.268;2024-01-10T09:29:37;-3.20;99.90
25482;DHT22;13395;50.752;4.268;2024-01-10T09:32:03;-3.10;99.90
25482;DHT22;13395;50.752;4.268;2024-01-10T09:34:29;-3.10;99.90
25482;DHT22;13395;50.752;4.268;2024-01-10T09:36:55;-3.00;99.90
25482;DHT22;13395;50.752;4.268;2024-01-10T09:39:20;-3.00;99.90
25482;DHT22;13395;50.752;4.268;2024-01-10T09:41:47;-2.90;99.90
25482;DHT22;13395;50.752;4.268;2024-01-10T09:44:20;-2.80;99.90
25482;DHT22;13395;50.752;4.268;2024-01-10T09:46:51;-2.60;99.90
25482;DHT22;13395;50.752;4.268;2024-01-10T09:49:17;-2.20;99.90
25482;DHT22;13395;50.752;4.268;2024-01-10T09:51:45;-1.50;99.90
25482;DHT22;13395;50.752;4.268;2024-01-10T09:54:13;-0.30;99.90
25482;DHT22;13395;50.752;4.268;2024-01-10T09:56:41;1.00;99.90
25482;DHT22;13395;50.752;4.268;2024-01-10T09:59:07;1.80;99.90
25482;DHT22;13395;50.752;4.268;2024-01-10T10:01:37;2.60;99.90
25482;DHT22;13395;50.752;4.268;2024-01-10T10:04:05;2.20;99.90
25482;DHT22;13395;50.752;4.268;2024-01-10T10:06:33;2.20;99.90
25482;DHT22;13395;50.752;4.268;2024-01-10T10:08:59;2.50;99.90
25482;DHT22;13395;50.752;4.268;2024-01-10T10:11:25;3.40;99.00
25482;DHT22;13395;50.752;4.268;2024-01-10T10:13:51;3.60;98.10
25482;DHT22;13395;50.752;4.268;2024-01-10T10:16:23;3.60;96.80
25482;DHT22;13395;50.752;4.268;2024-01-10T10:18:52;3.40;96.70
25482;DHT22;13395;50.752;4.268;2024-01-10T10:21:25;2.90;95.80
25482;DHT22;13395;50.752;4.268;2024-01-10T10:24:03;2.80;96.80
25482;DHT22;13395;50.752;4.268;2024-01-10T10:26:33;3.20;97.50
25482;DHT22;13395;50.752;4.268;2024-01-10T10:29:00;3.60;94.70
25482;DHT22;13395;50.752;4.268;2024-01-10T10:31:26;3.60;94.20
25482;DHT22;13395;50.752;4.268;2024-01-10T10:33:52;4.10;93.70
25482;DHT22;13395;50.752;4.268;2024-01-10T10:36:21;4.20;94.00
25482;DHT22;13395;50.752;4.268;2024-01-10T10:38:47;4.20;93.40
25482;DHT22;13395;50.752;4.268;2024-01-10T10:41:14;4.20;93.00
25482;DHT22;13395;50.752;4.268;2024-01-10T10:43:40;4.40;93.30
25482;DHT22;13395;50.752;4.268;2024-01-10T10:46:08;4.70;92.60
25482;DHT22;13395;50.752;4.268;2024-01-10T10:48:35;4.60;92.50
25482;DHT22;13395;50.752;4.268;2024-01-10T10:53:34;4.00;92.60
25482;DHT22;13395;50.752;4.268;2024-01-10T10:56:04;3.70;92.60
25482;DHT22;13395;50.752;4.268;2024-01-10T10:58:36;3.80;92.90
25482;DHT22;13395;50.752;4.268;2024-01-10T11:01:06;3.40;92.80
25482;DHT22;13395;50.752;4.268;2024-01-10T11:03:34;3.10;93.30
25482;DHT22;13395;50.752;4.268;2024-01-10T11:06:01;3.10;94.10
25482;DHT22;13395;50.752;4.268;2024-01-10T11:08:28;3.00;93.80
25482;DHT22;13395;50.752;4.268;2024-01-10T11:10:55;3.10;94.20
25482;DHT22;13395;50.752;4.268;2024-01-10T11:13:32;2.80;93.80
25482;DHT22;13395;50.752;4.268;2024-01-10T11:16:23;2.60;94.80
25482;DHT22;13395;50.752;4.268;2024-01-10T11:19:14;3.00;94.70
25482;DHT22;13395;50.752;4.268;2024-01-10T11:24:36;3.90;93.60
25482;DHT22;13395;50.752;4.268;2024-01-10T11:27:13;4.50;92.30
25482;DHT22;13395;50.752;4.268;2024-01-10T11:29:39;4.80;91.30
25482;DHT22;13395;50.752;4.268;2024-01-10T11:32:23;4.60;90.80
25482;DHT22;13395;50.752;4.268;2024-01-10T11:34:57;4.50;91.20
25482;DHT22;13395;50.752;4.268;2024-01-10T11:37:27;4.40;91.80
25482;DHT22;13395;50.752;4.268;2024-01-10T11:39:53;4.60;91.50
25482;DHT22;13395;50.752;4.268;2024-01-10T11:42:23;5.10;91.20
25482;DHT22;13395;50.752;4.268;2024-01-10T11:44:50;5.30;90.60
25482;DHT22;13395;50.752;4.268;2024-01-10T11:47:17;5.00;90.60
25482;DHT22;13395;50.752;4.268;2024-01-10T11:49:58;4.70;90.80
25482;DHT22;13395;50.752;4.268;2024-01-10T11:52:32;4.40;91.10
25482;DHT22;13395;50.752;4.268;2024-01-10T11:54:58;4.00;91.20
25482;DHT22;13395;50.752;4.268;2024-01-10T11:57:28;3.50;91.70
25482;DHT22;13395;50.752;4.268;2024-01-10T11:59:56;3.30;92.40
25482;DHT22;13395;50.752;4.268;2024-01-10T12:02:23;2.60;93.30
25482;DHT22;13395;50.752;4.268;2024-01-10T12:04:52;2.20;94.10
25482;DHT22;13395;50.752;4.268;2024-01-10T12:07:19;2.10;95.10
25482;DHT22;13395;50.752;4.268;2024-01-10T12:09:45;2.10;95.20
25482;DHT22;13395;50.752;4.268;2024-01-10T12:12:15;2.30;95.10
25482;DHT22;13395;50.752;4.268;2024-01-10T12:14:41;2.50;95.10
25482;DHT22;13395;50.752;4.268;2024-01-10T12:17:08;2.60;95.30
25482;DHT22;13395;50.752;4.268;2024-01-10T12:19:35;2.60;94.70
25482;DHT22;13395;50.752;4.268;2024-01-10T12:22:04;2.90;94.80
25482;DHT22;13395;50.752;4.268;2024-01-10T12:24:33;2.70;94.20
25482;DHT22;13395;50.752;4.268;2024-01-10T12:26:59;2.70;94.20
25482;DHT22;13395;50.752;4.268;2024-01-10T12:29:25;3.00;94.60
25482;DHT22;13395;50.752;4.268;2024-01-10T12:31:51;3.10;94.00
25482;DHT22;13395;50.752;4.268;2024-01-10T12:34:17;3.10;93.70
25482;DHT22;13395;50.752;4.268;2024-01-10T12:36:43;3.30;93.40
25482;DHT22;13395;50.752;4.268;2024-01-10T12:39:09;3.70;93.00
25482;DHT22;13395;50.752;4.268;2024-01-10T12:41:36;4.00;92.70
25482;DHT22;13395;50.752;4.268;2024-01-10T12:44:03;4.70;92.90
25482;DHT22;13395;50.752;4.268;2024-01-10T12:46:30;5.60;91.70
25482;DHT22;13395;50.752;4.268;2024-01-10T12:49:04;5.30;90.30
25482;DHT22;13395;50.752;4.268;2024-01-10T12:51:31;4.90;90.50
25482;DHT22;13395;50.752;4.268;2024-01-10T12:53:59;5.10;90.60
25482;DHT22;13395;50.752;4.268;2024-01-10T12:56:26;5.90;90.50
25482;DHT22;13395;50.752;4.268;2024-01-10T12:58:52;6.60;88.80
25482;DHT22;13395;50.752;4.268;2024-01-10T13:01:17;7.10;86.00
25482;DHT22;13395;50.752;4.268;2024-01-10T13:03:43;7.40;85.40
25482;DHT22;13395;50.752;4.268;2024-01-10T13:06:09;8.20;83.40
25482;DHT22;13395;50.752;4.268;2024-01-10T13:08:35;8.70;82.00
25482;DHT22;13395;50.752;4.268;2024-01-10T13:11:01;9.30;80.40
25482;DHT22;13395;50.752;4.268;2024-01-10T13:13:27;9.90;78.10
25482;DHT22;13395;50.752;4.268;2024-01-10T13:15:52;10.10;76.60
25482;DHT22;13395;50.752;4.268;2024-01-10T13:18:18;10.30;74.80
25482;DHT22;13395;50.752;4.268;2024-01-10T13:20:45;10.30;74.10
25482;DHT22;13395;50.752;4.268;2024-01-10T13:23:11;10.70;72.70
25482;DHT22;13395;50.752;4.268;2024-01-10T13:25:36;11.00;71.10
25482;DHT22;13395;50.752;4.268;2024-01-10T13:28:03;10.30;70.80
25482;DHT22;13395;50.752;4.268;2024-01-10T13:30:30;10.70;70.80
25482;DHT22;13395;50.752;4.268;2024-01-10T13:32:55;11.00;69.40
25482;DHT22;13395;50.752;4.268;2024-01-10T13:35:23;11.30;69.20
25482;DHT22;13395;50.752;4.268;2024-01-10T13:37:49;11.00;68.20
25482;DHT22;13395;50.752;4.268;2024-01-10T13:40:15;10.30;67.50
25482;DHT22;13395;50.752;4.268;2024-01-10T13:42:41;9.80;68.30
25482;DHT22;13395;50.752;4.268;2024-01-10T13:45:08;9.10;70.70
25482;DHT22;13395;50.752;4.268;2024-01-10T13:47:36;9.10;71.20
25482;DHT22;13395;50.752;4.268;2024-01-10T13:50:06;8.80;71.30
25482;DHT22;13395;50.752;4.268;2024-01-10T13:52:33;9.20;71.30
25482;DHT22;13395;50.752;4.268;2024-01-10T13:55:00;9.40;71.10
25482;DHT22;13395;50.752;4.268;2024-01-10T13:57:26;9.60;70.30
25482;DHT22;13395;50.752;4.268;2024-01-10T13:59:51;9.20;70.60
25482;DHT22;13395;50.752;4.268;2024-01-10T14:02:21;9.00;71.30
25482;DHT22;13395;50.752;4.268;2024-01-10T14:04:47;9.20;71.90
25482;DHT22;13395;50.752;4.268;2024-01-10T14:07:13;8.80;70.80
25482;DHT22;13395;50.752;4.268;2024-01-10T14:09:38;8.30;72.60
25482;DHT22;13395;50.752;4.268;2024-01-10T14:12:04;8.40;72.70
25482;DHT22;13395;50.752;4.268;2024-01-10T14:14:30;8.20;72.70
25482;DHT22;13395;50.752;4.268;2024-01-10T14:16:57;8.30;72.70
25482;DHT22;13395;50.752;4.268;2024-01-10T14:19:23;7.80;72.50
25482;DHT22;13395;50.752;4.268;2024-01-10T14:21:49;7.30;73.90
25482;DHT22;13395;50.752;4.268;2024-01-10T14:24:14;6.50;76.00
25482;DHT22;13395;50.752;4.268;2024-01-10T14:26:40;6.00;77.30
25482;DHT22;13395;50.752;4.268;2024-01-10T14:29:05;5.90;78.00
25482;DHT22;13395;50.752;4.268;2024-01-10T14:31:31;5.40;78.20
25482;DHT22;13395;50.752;4.268;2024-01-10T14:33:57;4.90;79.90
25482;DHT22;13395;50.752;4.268;2024-01-10T14:36:23;4.80;80.60
25482;DHT22;13395;50.752;4.268;2024-01-10T14:38:48;4.30;81.40
25482;DHT22;13395;50.752;4.268;2024-01-10T14:41:14;3.70;83.50
25482;DHT22;13395;50.752;4.268;2024-01-10T14:43:40;3.10;85.20
25482;DHT22;13395;50.752;4.268;2024-01-10T14:46:05;3.00;87.20
25482;DHT22;13395;50.752;4.268;2024-01-10T14:48:32;2.70;88.10
25482;DHT22;13395;50.752;4.268;2024-01-10T14:50:58;2.50;90.10
25482;DHT22;13395;50.752;4.268;2024-01-10T14:53:25;2.40;90.20
25482;DHT22;13395;50.752;4.268;2024-01-10T14:55:51;2.20;90.60
25482;DHT22;13395;50.752;4.268;2024-01-10T14:58:17;2.20;91.50
25482;DHT22;13395;50.752;4.268;2024-01-10T15:00:44;2.50;91.80
25482;DHT22;13395;50.752;4.268;2024-01-10T15:03:10;2.40;92.40
25482;DHT22;13395;50.752;4.268;2024-01-10T15:05:36;2.60;92.10
25482;DHT22;13395;50.752;4.268;2024-01-10T15:08:02;2.50;91.60
25482;DHT22;13395;50.752;4.268;2024-01-10T15:10:28;2.40;91.90
25482;DHT22;13395;50.752;4.268;2024-01-10T15:12:53;2.30;92.00
25482;DHT22;13395;50.752;4.268;2024-01-10T15:15:19;2.40;92.60
25482;DHT22;13395;50.752;4.268;2024-01-10T15:17:46;2.40;92.90
25482;DHT22;13395;50.752;4.268;2024-01-10T15:20:12;2.40;92.80
25482;DHT22;13395;50.752;4.268;2024-01-10T15:22:37;2.40;92.60
25482;DHT22;13395;50.752;4.268;2024-01-10T15:25:06;2.30;92.90
25482;DHT22;13395;50.752;4.268;2024-01-10T15:27:32;2.30;93.10
25482;DHT22;13395;50.752;4.268;2024-01-10T15:29:58;2.20;93.20
25482;DHT22;13395;50.752;4.268;2024-01-10T15:32:24;2.40;93.80
25482;DHT22;13395;50.752;4.268;2024-01-10T15:34:50;2.20;93.50
25482;DHT22;13395;50.752;4.268;2024-01-10T15:37:16;2.20;93.50